createdAt,value
2022-08-09T00:01:42.997Z,3.12
2022-08-09T00:04:24.923Z,2.73
2022-08-09T00:07:01.886Z,2.67
2022-08-09T00:09:29.694Z,2.82
2022-08-09T00:12:03.402Z,2.55
2022-08-09T00:14:37.755Z,2.97
2022-08-09T00:17:06.070Z,2.98
2022-08-09T00:19:34.889Z,2.81
2022-08-09T00:22:03.611Z,2.89
2022-08-09T00:24:32.316Z,2.88
2022-08-09T00:27:00.082Z,3.04
2022-08-09T00:29:39.505Z,2.85
2022-08-09T00:32:26.859Z,2.98
2022-08-09T00:34:56.147Z,2.85
2022-08-09T00:37:24.080Z,2.84
2022-08-09T00:40:12.499Z,2.73
2022-08-09T00:44:19.577Z,3.05
2022-08-09T00:45:26.085Z,2.98
2022-08-09T00:47:53.264Z,2.94
2022-08-09T00:50:25.024Z,2.91
2022-08-09T00:52:54.906Z,2.95
2022-08-09T00:56:03.094Z,2.80
2022-08-09T00:58:09.546Z,2.96
2022-08-09T01:00:44.306Z,3.02
2022-08-09T01:03:17.684Z,2.91
2022-08-09T01:05:54.154Z,3.24
2022-08-09T01:08:33.526Z,3.15
2022-08-09T01:11:18.526Z,3.14
2022-08-09T01:14:00.067Z,3.17
2022-08-09T01:16:37.026Z,3.24
2022-08-09T01:19:39.720Z,2.95
2022-08-09T01:22:56.283Z,3.17
2022-08-09T01:25:42.525Z,3.22
2022-08-09T01:28:19.366Z,3.09
2022-08-09T01:30:52.528Z,3.22
2022-08-09T01:33:27.025Z,3.37
2022-08-09T01:36:01.744Z,3.19
2022-08-09T01:38:36.445Z,3.33
2022-08-09T01:41:12.186Z,3.30
2022-08-09T01:43:51.889Z,3.36
2022-08-09T01:46:25.287Z,3.21
2022-08-09T01:48:59.950Z,3.24
2022-08-09T01:51:42.724Z,3.35
2022-08-09T01:54:11.687Z,3.39
2022-08-09T01:56:43.787Z,3.15
2022-08-09T01:59:23.064Z,3.26
2022-08-09T02:02:00.317Z,3.32
2022-08-09T02:04:31.746Z,3.33
2022-08-09T02:07:06.145Z,3.52
2022-08-09T02:09:42.165Z,3.30
2022-08-09T02:12:17.971Z,3.27
2022-08-09T02:14:52.387Z,3.19
2022-08-09T02:18:01.497Z,3.47
2022-08-09T02:20:15.781Z,3.41
2022-08-09T02:23:02.138Z,3.23
2022-08-09T02:25:42.018Z,3.39
2022-08-09T02:28:18.067Z,3.59
2022-08-09T02:30:54.112Z,3.72
2022-08-09T02:33:37.691Z,3.45
2022-08-09T02:36:10.491Z,3.43
2022-08-09T02:38:50.535Z,3.61
2022-08-09T02:41:28.367Z,3.38
2022-08-09T02:44:10.429Z,3.53
2022-08-09T02:46:57.505Z,3.54
2022-08-09T02:49:38.366Z,3.44
2022-08-09T02:52:09.685Z,3.40
2022-08-09T02:54:54.305Z,3.72
2022-08-09T02:57:25.433Z,3.53
2022-08-09T03:00:21.079Z,3.32
2022-08-09T03:02:58.598Z,3.73
2022-08-09T03:05:34.664Z,3.43
2022-08-09T03:08:04.945Z,3.48
2022-08-09T03:10:35.045Z,3.49
2022-08-09T03:13:08.429Z,3.51
2022-08-09T03:16:04.909Z,3.67
2022-08-09T03:18:31.164Z,3.54
2022-08-09T03:21:01.555Z,3.72
2022-08-09T03:23:29.003Z,3.36
2022-08-09T03:26:05.165Z,3.45
2022-08-09T03:28:35.224Z,3.55
2022-08-09T03:31:21.424Z,3.36
2022-08-09T03:33:54.718Z,3.61
2022-08-09T03:36:27.144Z,3.53
2022-08-09T03:38:56.437Z,3.77
2022-08-09T03:41:29.697Z,3.41
2022-08-09T03:44:12.032Z,3.58
2022-08-09T03:46:39.462Z,3.42
2022-08-09T03:49:09.868Z,4.09
2022-08-09T03:51:57.325Z,3.85
2022-08-09T03:54:31.200Z,3.72
2022-08-09T03:57:02.181Z,3.92
2022-08-09T03:59:42.994Z,4.03
2022-08-09T04:02:27.354Z,4.24
2022-08-09T04:05:00.846Z,4.17
2022-08-09T04:07:33.805Z,4.02
2022-08-09T04:10:18.256Z,4.08
2022-08-09T04:12:51.057Z,4.25
2022-08-09T04:15:40.468Z,4.15
2022-08-09T04:18:09.354Z,4.21
2022-08-09T04:20:47.317Z,3.89
2022-08-09T04:23:16.609Z,3.83
2022-08-09T04:25:44.881Z,3.90
2022-08-09T04:28:33.941Z,3.89
2022-08-09T04:31:08.151Z,3.99
2022-08-09T04:33:47.280Z,3.85
2022-08-09T04:36:24.240Z,4.00
2022-08-09T04:38:51.761Z,4.07
2022-08-09T04:41:19.401Z,3.88
2022-08-09T04:44:05.222Z,4.22
2022-08-09T04:46:37.261Z,4.11
2022-08-09T04:49:40.385Z,3.88
2022-08-09T04:52:10.919Z,4.08
2022-08-09T04:54:38.561Z,4.00
2022-08-09T04:57:09.272Z,3.89
2022-08-09T04:59:37.362Z,3.99
2022-08-09T05:02:04.723Z,4.15
2022-08-09T05:04:33.675Z,4.01
2022-08-09T05:07:01.020Z,4.22
2022-08-09T05:09:41.945Z,4.27
2022-08-09T05:12:12.799Z,4.13
2022-08-09T05:14:41.043Z,3.99
2022-08-09T05:18:39.449Z,4.40
2022-08-09T05:19:58.151Z,4.44
2022-08-09T05:23:51.156Z,4.44
2022-08-09T05:25:15.422Z,4.68
2022-08-09T05:27:46.437Z,4.71
2022-08-09T05:30:17.593Z,4.65
2022-08-09T05:32:45.280Z,4.58
2022-08-09T05:35:18.467Z,4.48
2022-08-09T05:37:50.235Z,4.43
2022-08-09T05:40:20.308Z,4.29
2022-08-09T05:42:49.021Z,4.62
2022-08-09T05:45:16.901Z,4.58
2022-08-09T05:47:52.481Z,4.64
2022-08-09T05:50:34.837Z,4.72
2022-08-09T05:53:11.775Z,4.74
2022-08-09T05:55:57.642Z,4.44
2022-08-09T05:58:24.820Z,4.23
2022-08-09T06:00:51.950Z,4.42
2022-08-09T06:03:20.014Z,4.34
2022-08-09T06:05:57.100Z,4.35
2022-08-09T06:08:32.362Z,4.54
2022-08-09T06:11:00.903Z,4.31
2022-08-09T06:13:28.658Z,4.52
2022-08-09T06:16:01.687Z,4.31
2022-08-09T06:18:35.221Z,4.29
2022-08-09T06:21:05.642Z,4.02
2022-08-09T06:23:58.598Z,4.12
2022-08-09T06:26:28.553Z,4.43
2022-08-09T06:29:00.638Z,3.98
2022-08-09T06:31:40.234Z,4.13
2022-08-09T06:34:22.540Z,4.41
2022-08-09T06:36:50.782Z,4.08
2022-08-09T06:39:48.831Z,4.22
2022-08-09T06:42:15.908Z,4.46
2022-08-09T06:44:43.462Z,4.53
2022-08-09T06:47:10.685Z,4.02
2022-08-09T06:50:11.221Z,4.41
2022-08-09T06:52:27.402Z,4.38
2022-08-09T06:54:54.703Z,4.22
2022-08-09T06:57:25.845Z,4.42
2022-08-09T07:00:56.455Z,4.11
2022-08-09T07:02:59.403Z,3.90
2022-08-09T07:05:58.199Z,4.29
2022-08-09T07:08:13.927Z,3.95
2022-08-09T07:10:41.083Z,4.20
2022-08-09T07:13:27.587Z,4.02
2022-08-09T07:16:42.755Z,3.98
2022-08-09T07:18:42.985Z,4.35
2022-08-09T07:21:10.522Z,3.91
2022-08-09T07:23:56.255Z,3.93
2022-08-09T07:26:25.522Z,3.75
2022-08-09T07:29:08.455Z,4.01
2022-08-09T07:31:45.552Z,3.38
2022-08-09T07:34:20.108Z,3.73
2022-08-09T07:36:49.104Z,3.53
2022-08-09T07:39:19.706Z,3.49
2022-08-09T07:41:47.960Z,4.01
2022-08-09T07:44:17.003Z,3.78
2022-08-09T07:46:51.464Z,4.06
2022-08-09T07:49:19.340Z,3.86
2022-08-09T07:52:04.614Z,3.73
2022-08-09T07:54:33.620Z,3.98
2022-08-09T07:57:00.848Z,4.28
2022-08-09T07:59:34.380Z,4.16
2022-08-09T08:02:19.899Z,4.26
2022-08-09T08:04:54.074Z,4.28
2022-08-09T08:08:44.080Z,3.93
2022-08-09T08:10:11.107Z,3.86
2022-08-09T08:12:43.730Z,3.96
2022-08-09T08:15:16.907Z,4.20
2022-08-09T08:17:53.152Z,3.98
2022-08-09T08:20:30.256Z,4.12
2022-08-09T08:23:03.437Z,3.87
2022-08-09T08:25:46.494Z,3.77
2022-08-09T08:28:18.285Z,4.14
2022-08-09T08:30:55.298Z,4.24
2022-08-09T08:33:24.499Z,4.07
2022-08-09T08:36:00.458Z,4.01
2022-08-09T08:38:31.084Z,4.15
2022-08-09T08:40:59.423Z,3.93
2022-08-09T08:43:27.415Z,4.06
2022-08-09T08:46:25.024Z,3.91
2022-08-09T08:48:52.036Z,4.15
2022-08-09T08:51:21.444Z,4.21
2022-08-09T08:54:03.515Z,4.13
2022-08-09T08:56:35.227Z,4.17
2022-08-09T08:59:07.811Z,4.06
2022-08-09T09:01:53.290Z,4.10
2022-08-09T09:04:28.751Z,3.98
2022-08-09T09:07:01.247Z,3.84
2022-08-09T09:09:58.717Z,3.75
2022-08-09T09:12:29.309Z,4.40
2022-08-09T09:15:00.097Z,4.25
2022-08-09T09:17:48.652Z,4.16
2022-08-09T09:20:16.961Z,4.30
2022-08-09T09:22:55.456Z,4.60
2022-08-09T09:26:04.056Z,4.19
2022-08-09T09:28:39.255Z,4.34
2022-08-09T09:32:06.669Z,4.42
2022-08-09T09:34:18.023Z,4.22
2022-08-09T09:36:46.955Z,4.12
2022-08-09T09:39:21.755Z,4.22
2022-08-09T09:41:50.984Z,4.33
2022-08-09T09:44:31.315Z,4.04
2022-08-09T09:47:06.687Z,4.23
2022-08-09T09:50:07.372Z,4.44
2022-08-09T09:52:35.709Z,4.22
2022-08-09T09:55:27.591Z,4.35
2022-08-09T09:58:15.690Z,4.13
2022-08-09T10:00:52.663Z,4.38
2022-08-09T10:03:40.083Z,4.65
2022-08-09T10:06:09.041Z,4.52
2022-08-09T10:08:43.289Z,4.16
2022-08-09T10:11:59.413Z,4.26
2022-08-09T10:14:27.353Z,4.64
2022-08-09T10:17:05.278Z,4.35
2022-08-09T10:19:45.931Z,4.41
2022-08-09T10:22:14.780Z,4.54
2022-08-09T10:24:57.761Z,4.97
2022-08-09T10:27:34.606Z,5.08
2022-08-09T10:31:38.147Z,4.63
2022-08-09T10:32:56.964Z,4.87
2022-08-09T10:35:27.641Z,4.61
2022-08-09T10:38:00.303Z,4.84
2022-08-09T10:40:28.463Z,4.74
2022-08-09T10:43:02.901Z,4.63
2022-08-09T10:45:31.927Z,4.55
2022-08-09T10:48:26.407Z,4.45
2022-08-09T10:51:15.329Z,4.55
2022-08-09T10:54:04.767Z,4.33
2022-08-09T10:56:34.937Z,4.65
2022-08-09T10:59:30.664Z,4.37
2022-08-09T11:03:13.559Z,4.32
2022-08-09T11:05:25.350Z,4.17
2022-08-09T11:07:59.244Z,4.39
2022-08-09T11:10:56.469Z,4.28
2022-08-09T11:13:53.768Z,4.50
2022-08-09T11:16:36.273Z,4.41
2022-08-09T11:19:09.799Z,4.39
2022-08-09T11:22:04.897Z,4.35
2022-08-09T11:25:03.066Z,4.37
2022-08-09T11:28:03.200Z,4.61
2022-08-09T11:30:35.539Z,4.22
2022-08-09T11:33:05.305Z,4.43
2022-08-09T11:35:49.698Z,4.25
2022-08-09T11:38:22.349Z,4.28
2022-08-09T11:40:56.563Z,4.35
2022-08-09T11:43:40.804Z,4.37
2022-08-09T11:46:08.704Z,4.51
2022-08-09T11:48:48.059Z,4.35
2022-08-09T11:53:02.178Z,4.43
2022-08-09T11:54:27.668Z,4.27
2022-08-09T11:57:47.897Z,4.43
2022-08-09T12:00:24.299Z,4.27
2022-08-09T12:02:57.356Z,4.64
2022-08-09T12:05:35.766Z,4.88
2022-08-09T12:08:19.751Z,4.52
2022-08-09T12:10:53.090Z,4.19
2022-08-09T12:14:07.969Z,4.33
2022-08-09T12:16:37.182Z,4.44
2022-08-09T12:19:07.562Z,4.33
2022-08-09T12:21:39.264Z,4.64
2022-08-09T12:24:24.388Z,4.82
2022-08-09T12:29:12.146Z,4.34
2022-08-09T12:30:00.181Z,4.19
2022-08-09T12:32:41.087Z,4.17
2022-08-09T12:35:12.375Z,4.23
2022-08-09T12:37:50.099Z,4.16
2022-08-09T12:40:23.304Z,4.17
2022-08-09T12:42:53.045Z,4.40
2022-08-09T12:45:33.520Z,4.22
2022-08-09T12:48:03.300Z,3.80
2022-08-09T12:50:31.281Z,4.10
2022-08-09T12:53:09.401Z,4.36
2022-08-09T12:56:11.919Z,4.36
2022-08-09T12:58:34.542Z,4.02
2022-08-09T13:01:26.746Z,3.46
2022-08-09T13:04:02.219Z,3.99
2022-08-09T13:06:34.552Z,3.43
2022-08-09T13:09:09.582Z,3.48
2022-08-09T13:11:42.528Z,3.75
2022-08-09T13:14:41.856Z,3.68
2022-08-09T13:17:01.380Z,3.28
2022-08-09T13:20:08.284Z,3.24
2022-08-09T13:22:36.719Z,3.31
2022-08-09T13:25:11.956Z,3.80
2022-08-09T13:27:54.758Z,4.12
2022-08-09T13:30:51.141Z,3.92
2022-08-09T13:33:21.239Z,3.19
2022-08-09T13:36:38.602Z,2.96
2022-08-09T13:38:55.857Z,2.89
2022-08-09T13:41:58.643Z,3.06
2022-08-09T13:44:16.459Z,2.89
2022-08-09T13:47:27.027Z,2.81
2022-08-09T13:49:37.813Z,2.94
2022-08-09T13:52:09.253Z,2.87
2022-08-09T13:54:41.735Z,2.94
2022-08-09T13:57:37.216Z,3.01
2022-08-09T14:00:08.740Z,3.08
2022-08-09T14:02:36.356Z,2.89
2022-08-09T14:05:10.543Z,2.99
2022-08-09T14:07:42.186Z,2.99
2022-08-09T14:10:17.047Z,3.05
2022-08-09T14:12:56.112Z,2.89
2022-08-09T14:16:09.417Z,2.74
2022-08-09T14:18:20.138Z,3.01
2022-08-09T14:20:59.031Z,2.96
2022-08-09T14:23:40.371Z,2.69
2022-08-09T14:26:13.680Z,2.63
2022-08-09T14:28:42.882Z,2.70
2022-08-09T14:31:13.301Z,2.59
2022-08-09T14:33:40.643Z,2.78
2022-08-09T14:36:19.527Z,2.68
2022-08-09T14:38:52.733Z,2.63
2022-08-09T14:41:40.468Z,2.68
2022-08-09T14:44:09.438Z,2.82
2022-08-09T14:47:01.518Z,2.64
2022-08-09T14:49:27.501Z,2.67
2022-08-09T14:51:58.487Z,2.93
2022-08-09T14:54:27.917Z,2.70
2022-08-09T14:56:58.979Z,2.77
2022-08-09T14:59:27.048Z,2.50
2022-08-09T15:01:56.230Z,2.63
2022-08-09T15:04:23.956Z,2.95
2022-08-09T15:06:51.871Z,2.86
2022-08-09T15:10:03.460Z,2.69
2022-08-09T15:12:08.031Z,2.54
2022-08-09T15:14:38.491Z,2.81
2022-08-09T15:17:07.737Z,2.85
2022-08-09T15:19:36.961Z,2.73
2022-08-09T15:22:22.002Z,2.83
2022-08-09T15:24:54.226Z,2.57
2022-08-09T15:27:21.917Z,2.59
2022-08-09T15:30:57.552Z,2.84
2022-08-09T15:32:38.633Z,2.51
2022-08-09T15:35:40.354Z,2.24
2022-08-09T15:37:57.012Z,2.40
2022-08-09T15:40:43.864Z,2.24
2022-08-09T15:43:13.330Z,2.35
2022-08-09T15:45:51.877Z,2.23
2022-08-09T15:48:30.827Z,1.88
2022-08-09T15:51:00.350Z,1.79
2022-08-09T15:54:03.531Z,2.08
2022-08-09T15:56:28.415Z,2.17
2022-08-09T15:58:56.680Z,1.99
2022-08-09T16:01:23.954Z,1.93
2022-08-09T16:03:52.706Z,1.97
2022-08-09T16:06:34.933Z,2.21
2022-08-09T16:09:03.371Z,1.87
2022-08-09T16:11:33.161Z,1.97
2022-08-09T16:14:05.482Z,1.87
2022-08-09T16:16:36.802Z,1.83
2022-08-09T16:19:07.587Z,1.98
2022-08-09T16:21:35.525Z,2.09
2022-08-09T16:24:03.058Z,2.11
2022-08-09T16:26:34.435Z,2.19
2022-08-09T16:29:10.554Z,2.24
2022-08-09T16:32:20.019Z,2.11
2022-08-09T16:34:29.382Z,2.15
2022-08-09T16:37:16.564Z,2.36
2022-08-09T16:39:54.515Z,2.45
2022-08-09T16:42:30.743Z,2.83
2022-08-09T16:44:57.922Z,2.45
2022-08-09T16:48:38.473Z,2.44
2022-08-09T16:50:31.879Z,2.31
2022-08-09T16:53:01.321Z,2.16
2022-08-09T16:55:44.183Z,2.08
2022-08-09T16:58:16.558Z,2.12
2022-08-09T17:00:44.116Z,2.44
2022-08-09T17:03:21.522Z,2.53
2022-08-09T17:06:06.951Z,2.35
2022-08-09T17:08:46.753Z,2.64
2022-08-09T17:11:24.621Z,2.43
2022-08-09T17:14:08.344Z,2.36
2022-08-09T17:16:52.542Z,2.47
2022-08-09T17:19:20.961Z,2.51
2022-08-09T17:21:55.416Z,2.50
2022-08-09T17:24:30.649Z,2.40
2022-08-09T17:26:58.664Z,2.51
2022-08-09T17:29:31.787Z,2.56
2022-08-09T17:32:05.643Z,2.66
2022-08-09T17:35:04.380Z,2.57
2022-08-09T17:37:22.144Z,2.87
2022-08-09T17:39:53.751Z,2.63
2022-08-09T17:42:55.119Z,2.83
2022-08-09T17:45:15.909Z,2.70
2022-08-09T17:47:55.019Z,2.67
2022-08-09T17:50:36.388Z,2.76
2022-08-09T17:53:19.663Z,2.91
2022-08-09T17:55:54.227Z,2.59
2022-08-09T17:58:27.417Z,2.67
2022-08-09T18:00:54.796Z,2.83
2022-08-09T18:03:23.894Z,2.62
2022-08-09T18:05:53.175Z,2.85
2022-08-09T18:08:27.363Z,2.70
2022-08-09T18:11:01.471Z,2.66
2022-08-09T18:13:54.436Z,2.68
2022-08-09T18:16:29.095Z,2.76
2022-08-09T18:19:03.520Z,2.60
2022-08-09T18:21:31.763Z,2.55
2022-08-09T18:24:14.244Z,2.78
2022-08-09T18:26:46.748Z,2.37
2022-08-09T18:30:34.995Z,2.66
2022-08-09T18:32:03.202Z,2.71
2022-08-09T18:34:30.664Z,2.71
2022-08-09T18:36:57.745Z,2.60
2022-08-09T18:39:32.643Z,2.73
2022-08-09T18:42:00.409Z,2.53
2022-08-09T18:44:28.085Z,2.38
2022-08-09T18:47:07.776Z,2.61
2022-08-09T18:49:46.376Z,2.22
2022-08-09T18:52:18.693Z,2.21
2022-08-09T18:55:04.973Z,2.22
2022-08-09T18:57:38.686Z,2.51
2022-08-09T19:00:16.311Z,2.17
2022-08-09T19:02:47.138Z,2.36
2022-08-09T19:05:19.970Z,2.15
2022-08-09T19:07:59.410Z,2.41
2022-08-09T19:10:39.829Z,2.35
2022-08-09T19:13:20.932Z,2.58
2022-08-09T19:15:56.275Z,2.87
2022-08-09T19:18:33.755Z,2.47
2022-08-09T19:21:05.303Z,2.36
2022-08-09T19:24:38.054Z,2.78
2022-08-09T19:26:29.078Z,2.46
2022-08-09T19:29:01.651Z,2.34
2022-08-09T19:31:30.546Z,2.34
2022-08-09T19:34:21.262Z,2.60
2022-08-09T19:36:51.014Z,2.35
2022-08-09T19:39:20.849Z,2.49
2022-08-09T19:41:57.982Z,2.31
2022-08-09T19:44:25.164Z,2.46
2022-08-09T19:46:53.302Z,2.24
2022-08-09T19:50:10.286Z,2.44
2022-08-09T19:52:09.061Z,2.19
2022-08-09T19:54:39.462Z,2.33
2022-08-09T19:57:08.558Z,2.15
2022-08-09T19:59:57.214Z,2.30
2022-08-09T20:04:11.216Z,1.94
2022-08-09T20:05:14.682Z,1.99
2022-08-09T20:07:59.070Z,1.90
2022-08-09T20:10:34.315Z,2.09
2022-08-09T20:13:07.004Z,2.04
2022-08-09T20:16:34.846Z,2.10
2022-08-09T20:18:22.679Z,2.34
2022-08-09T20:20:55.530Z,2.09
2022-08-09T20:23:23.796Z,2.26
2022-08-09T20:25:53.357Z,2.09
2022-08-09T20:28:27.686Z,2.49
2022-08-09T20:31:04.559Z,2.25
2022-08-09T20:33:41.135Z,2.45
2022-08-09T20:36:11.645Z,2.67
2022-08-09T20:39:18.594Z,2.45
2022-08-09T20:41:35.530Z,2.40
2022-08-09T20:44:09.993Z,2.57
2022-08-09T20:46:42.986Z,2.62
2022-08-09T20:49:12.447Z,2.55
2022-08-09T20:51:41.423Z,2.66
2022-08-09T20:54:10.589Z,2.64
2022-08-09T20:56:41.067Z,2.52
2022-08-09T20:59:10.005Z,2.58
2022-08-09T21:01:50.425Z,2.64
2022-08-09T21:05:52.020Z,2.39
2022-08-09T21:07:11.678Z,2.39
2022-08-09T21:09:42.102Z,2.46
2022-08-09T21:14:49.114Z,2.55
2022-08-09T21:18:11.379Z,2.49
2022-08-09T21:20:22.418Z,2.76
2022-08-09T21:22:52.710Z,2.63
2022-08-09T21:25:22.319Z,2.73
2022-08-09T21:27:53.258Z,2.52
2022-08-09T21:30:23.223Z,2.53
2022-08-09T21:32:52.529Z,2.46
2022-08-09T21:35:21.669Z,2.54
2022-08-09T21:37:59.899Z,2.57
2022-08-09T21:40:30.211Z,2.63
2022-08-09T21:42:58.259Z,2.48
2022-08-09T21:45:27.463Z,2.64
2022-08-09T21:48:01.788Z,2.61
2022-08-09T21:50:36.020Z,2.37
2022-08-09T21:53:19.835Z,2.82
2022-08-09T21:55:54.945Z,2.59
2022-08-09T21:58:29.179Z,2.82
2022-08-09T22:00:59.787Z,2.77
2022-08-09T22:03:27.948Z,2.67
2022-08-09T22:05:55.421Z,2.74
2022-08-09T22:08:25.260Z,2.78
2022-08-09T22:11:00.255Z,2.60
2022-08-09T22:13:43.288Z,2.68
2022-08-09T22:16:12.555Z,2.99
2022-08-09T22:18:53.140Z,2.96
2022-08-09T22:21:22.350Z,2.44
2022-08-09T22:23:59.632Z,2.57
2022-08-09T22:26:35.296Z,2.62
2022-08-09T22:29:07.110Z,2.60
2022-08-09T22:31:36.705Z,2.62
2022-08-09T22:34:09.633Z,2.58
2022-08-09T22:36:45.983Z,2.85
2022-08-09T22:39:47.284Z,2.51
2022-08-09T22:42:01.202Z,2.45
2022-08-09T22:44:29.813Z,2.41
2022-08-09T22:48:14.134Z,2.46
2022-08-09T22:49:51.927Z,2.41
2022-08-09T22:52:19.675Z,2.53
2022-08-09T22:54:47.842Z,2.54
2022-08-09T22:57:15.670Z,2.40
2022-08-09T22:59:57.733Z,2.59
2022-08-09T23:02:27.702Z,2.56
2022-08-09T23:04:55.419Z,2.52
2022-08-09T23:08:09.405Z,2.33
2022-08-09T23:10:12.522Z,2.62
2022-08-09T23:12:39.724Z,2.52
2022-08-09T23:15:07.881Z,2.46
2022-08-09T23:17:36.577Z,2.41
2022-08-09T23:20:07.391Z,2.49
2022-08-09T23:22:35.823Z,2.73
2022-08-09T23:25:03.661Z,2.56
2022-08-09T23:27:30.803Z,2.57
2022-08-09T23:29:57.963Z,2.41
2022-08-09T23:32:25.221Z,2.70
2022-08-09T23:34:53.822Z,2.50
2022-08-09T23:37:21.437Z,2.65
2022-08-09T23:39:52.823Z,2.81
2022-08-09T23:42:20.021Z,2.64
2022-08-09T23:44:47.282Z,2.86
2022-08-09T23:47:14.663Z,2.66
2022-08-09T23:49:41.889Z,2.77
2022-08-09T23:52:10.488Z,2.76
2022-08-09T23:54:38.561Z,2.63
2022-08-09T23:57:06.819Z,2.58
2022-08-09T23:59:36.585Z,2.67
